sensor_id;sensor_type;location;lat;lon;timestamp;temperature;humidity
8684;DHT22;4379;59.744;18.206;2023-01-08T00:01:15;0.90;99.90
8684;DHT22;4379;59.744;18.206;2023-01-08T00:03:43;0.80;99.90
8684;DHT22;4379;59.744;18.206;2023-01-08T00:06:16;0.90;99.90
8684;DHT22;4379;59.744;18.206;2023-01-08T00:08:44;0.90;99.90
8684;DHT22;4379;59.744;18.206;2023-01-08T00:11:12;0.90;99.90
8684;DHT22;4379;59.744;18.206;2023-01-08T00:13:39;0.90;99.90
8684;DHT22;4379;59.744;18.206;2023-01-08T00:16:13;0.90;99.90
8684;DHT22;4379;59.744;18.206;2023-01-08T00:18:40;0.90;99.90
8684;DHT22;4379;59.744;18.206;2023-01-08T00:21:08;0.90;99.90
8684;DHT22;4379;59.744;18.206;2023-01-08T00:23:36;0.90;99.90
8684;DHT22;4379;59.744;18.206;2023-01-08T00:26:06;1.00;99.90
8684;DHT22;4379;59.744;18.206;2023-01-08T00:28:34;0.90;99.90
8684;DHT22;4379;59.744;18.206;2023-01-08T00:31:09;1.00;99.90
8684;DHT22;4379;59.744;18.206;2023-01-08T00:33:37;0.90;99.90
8684;DHT22;4379;59.744;18.206;2023-01-08T00:36:13;1.00;99.90
8684;DHT22;4379;59.744;18.206;2023-01-08T00:38:42;0.90;99.90
8684;DHT22;4379;59.744;18.206;2023-01-08T00:41:09;0.90;99.90
8684;DHT22;4379;59.744;18.206;2023-01-08T00:43:37;1.00;99.90
8684;DHT22;4379;59.744;18.206;2023-01-08T00:46:05;1.00;99.90
8684;DHT22;4379;59.744;18.206;2023-01-08T00:48:33;1.00;99.90
8684;DHT22;4379;59.744;18.206;2023-01-08T00:51:06;0.90;99.90
8684;DHT22;4379;59.744;18.206;2023-01-08T00:53:33;0.90;99.90
8684;DHT22;4379;59.744;18.206;2023-01-08T00:56:02;1.00;99.90
8684;DHT22;4379;59.744;18.206;2023-01-08T00:58:29;1.00;99.90
8684;DHT22;4379;59.744;18.206;2023-01-08T01:00:57;1.00;99.90
8684;DHT22;4379;59.744;18.206;2023-01-08T01:03:24;1.00;99.90
8684;DHT22;4379;59.744;18.206;2023-01-08T01:06:02;1.00;99.90
8684;DHT22;4379;59.744;18.206;2023-01-08T01:08:30;1.10;99.90
8684;DHT22;4379;59.744;18.206;2023-01-08T01:10:57;1.10;99.90
8684;DHT22;4379;59.744;18.206;2023-01-08T01:13:25;1.10;99.90
8684;DHT22;4379;59.744;18.206;2023-01-08T01:16:02;1.10;99.90
8684;DHT22;4379;59.744;18.206;2023-01-08T01:18:30;1.00;99.90
8684;DHT22;4379;59.744;18.206;2023-01-08T01:20:57;1.00;99.90
8684;DHT22;4379;59.744;18.206;2023-01-08T01:23:25;0.90;99.90
8684;DHT22;4379;59.744;18.206;2023-01-08T01:25:52;1.00;99.90
8684;DHT22;4379;59.744;18.206;2023-01-08T01:28:20;1.00;99.90
8684;DHT22;4379;59.744;18.206;2023-01-08T01:30:53;1.00;99.90
8684;DHT22;4379;59.744;18.206;2023-01-08T01:33:22;1.10;99.90
8684;DHT22;4379;59.744;18.206;2023-01-08T01:35:58;1.00;99.90
8684;DHT22;4379;59.744;18.206;2023-01-08T01:38:25;1.00;99.90
8684;DHT22;4379;59.744;18.206;2023-01-08T01:40:52;1.00;99.90
8684;DHT22;4379;59.744;18.206;2023-01-08T01:43:36;1.00;99.90
8684;DHT22;4379;59.744;18.206;2023-01-08T01:46:14;1.10;99.90
8684;DHT22;4379;59.744;18.206;2023-01-08T01:48:42;1.10;99.90
8684;DHT22;4379;59.744;18.206;2023-01-08T01:51:10;1.10;99.90
8684;DHT22;4379;59.744;18.206;2023-01-08T01:53:37;1.00;99.90
8684;DHT22;4379;59.744;18.206;2023-01-08T01:56:04;1.10;99.90
8684;DHT22;4379;59.744;18.206;2023-01-08T01:58:32;1.10;99.90
8684;DHT22;4379;59.744;18.206;2023-01-08T02:01:04;1.10;99.90
8684;DHT22;4379;59.744;18.206;2023-01-08T02:03:37;1.10;99.90
8684;DHT22;4379;59.744;18.206;2023-01-08T02:06:35;1.10;99.90
8684;DHT22;4379;59.744;18.206;2023-01-08T02:11:49;1.10;99.90
8684;DHT22;4379;59.744;18.206;2023-01-08T02:14:52;1.10;99.90
8684;DHT22;4379;59.744;18.206;2023-01-08T02:17:32;1.20;99.90
8684;DHT22;4379;59.744;18.206;2023-01-08T02:20:14;1.10;99.90
8684;DHT22;4379;59.744;18.206;2023-01-08T02:28:29;1.20;99.90
8684;DHT22;4379;59.744;18.206;2023-01-08T02:30:59;1.20;99.90
8684;DHT22;4379;59.744;18.206;2023-01-08T02:33:27;1.20;99.90
8684;DHT22;4379;59.744;18.206;2023-01-08T02:42:04;1.10;99.90
8684;DHT22;4379;59.744;18.206;2023-01-08T02:47:09;1.20;99.90
8684;DHT22;4379;59.744;18.206;2023-01-08T02:49:38;1.20;99.90
8684;DHT22;4379;59.744;18.206;2023-01-08T02:52:10;1.20;99.90
8684;DHT22;4379;59.744;18.206;2023-01-08T02:54:40;1.30;99.90
8684;DHT22;4379;59.744;18.206;2023-01-08T02:57:14;1.20;99.90
8684;DHT22;4379;59.744;18.206;2023-01-08T02:59:43;1.20;99.90
8684;DHT22;4379;59.744;18.206;2023-01-08T03:02:12;1.20;99.90
8684;DHT22;4379;59.744;18.206;2023-01-08T03:04:47;1.20;99.90
8684;DHT22;4379;59.744;18.206;2023-01-08T03:07:15;1.20;99.90
8684;DHT22;4379;59.744;18.206;2023-01-08T03:09:42;1.20;99.90
8684;DHT22;4379;59.744;18.206;2023-01-08T03:12:34;1.20;99.90
8684;DHT22;4379;59.744;18.206;2023-01-08T03:15:08;1.20;99.90
8684;DHT22;4379;59.744;18.206;2023-01-08T03:17:42;1.10;99.90
8684;DHT22;4379;59.744;18.206;2023-01-08T03:20:16;1.20;99.90
8684;DHT22;4379;59.744;18.206;2023-01-08T03:22:47;1.10;99.90
8684;DHT22;4379;59.744;18.206;2023-01-08T03:25:17;1.10;99.90
8684;DHT22;4379;59.744;18.206;2023-01-08T03:27:48;1.10;99.90
8684;DHT22;4379;59.744;18.206;2023-01-08T03:30:17;1.10;99.90
8684;DHT22;4379;59.744;18.206;2023-01-08T03:32:46;1.00;99.90
8684;DHT22;4379;59.744;18.206;2023-01-08T03:35:18;1.00;99.90
8684;DHT22;4379;59.744;18.206;2023-01-08T03:37:53;1.00;99.90
8684;DHT22;4379;59.744;18.206;2023-01-08T03:40:25;0.90;99.90
8684;DHT22;4379;59.744;18.206;2023-01-08T03:42:53;1.00;99.90
8684;DHT22;4379;59.744;18.206;2023-01-08T03:45:22;0.90;99.90
8684;DHT22;4379;59.744;18.206;2023-01-08T03:47:50;0.90;99.90
8684;DHT22;4379;59.744;18.206;2023-01-08T03:50:21;0.90;99.90
8684;DHT22;4379;59.744;18.206;2023-01-08T03:52:49;0.90;99.90
8684;DHT22;4379;59.744;18.206;2023-01-08T03:55:16;0.90;99.90
8684;DHT22;4379;59.744;18.206;2023-01-08T03:57:43;0.90;99.90
8684;DHT22;4379;59.744;18.206;2023-01-08T04:00:11;1.00;99.90
8684;DHT22;4379;59.744;18.206;2023-01-08T04:02:39;1.00;99.90
8684;DHT22;4379;59.744;18.206;2023-01-08T04:05:09;1.00;99.90
8684;DHT22;4379;59.744;18.206;2023-01-08T04:07:36;1.00;99.90
8684;DHT22;4379;59.744;18.206;2023-01-08T04:10:04;1.10;99.90
8684;DHT22;4379;59.744;18.206;2023-01-08T04:12:31;1.10;99.90
8684;DHT22;4379;59.744;18.206;2023-01-08T04:14:58;1.10;99.90
8684;DHT22;4379;59.744;18.206;2023-01-08T04:17:25;1.10;99.90
8684;DHT22;4379;59.744;18.206;2023-01-08T04:19:52;1.10;99.90
8684;DHT22;4379;59.744;18.206;2023-01-08T04:22:19;1.10;99.90
8684;DHT22;4379;59.744;18.206;2023-01-08T04:24:46;1.10;99.90
8684;DHT22;4379;59.744;18.206;2023-01-08T04:27:14;1.10;99.90
8684;DHT22;4379;59.744;18.206;2023-01-08T04:29:41;1.10;99.90
8684;DHT22;4379;59.744;18.206;2023-01-08T04:32:08;1.20;99.90
8684;DHT22;4379;59.744;18.206;2023-01-08T04:34:35;1.20;99.90
8684;DHT22;4379;59.744;18.206;2023-01-08T04:37:02;1.20;99.90
8684;DHT22;4379;59.744;18.206;2023-01-08T04:39:29;1.30;99.90
8684;DHT22;4379;59.744;18.206;2023-01-08T04:41:57;1.20;99.90
8684;DHT22;4379;59.744;18.206;2023-01-08T04:44:24;1.20;99.90
8684;DHT22;4379;59.744;18.206;2023-01-08T04:46:51;1.20;99.90
8684;DHT22;4379;59.744;18.206;2023-01-08T04:49:18;1.20;99.90
8684;DHT22;4379;59.744;18.206;2023-01-08T04:51:45;1.30;99.90
8684;DHT22;4379;59.744;18.206;2023-01-08T04:54:12;1.30;99.90
8684;DHT22;4379;59.744;18.206;2023-01-08T04:56:40;1.30;99.90
8684;DHT22;4379;59.744;18.206;2023-01-08T04:59:07;1.30;99.90
8684;DHT22;4379;59.744;18.206;2023-01-08T05:01:34;1.30;99.90
8684;DHT22;4379;59.744;18.206;2023-01-08T05:04:03;1.40;99.90
8684;DHT22;4379;59.744;18.206;2023-01-08T05:06:31;1.40;99.90
8684;DHT22;4379;59.744;18.206;2023-01-08T05:08:58;1.40;99.90
8684;DHT22;4379;59.744;18.206;2023-01-08T05:11:26;1.50;99.90
8684;DHT22;4379;59.744;18.206;2023-01-08T05:13:53;1.50;99.90
8684;DHT22;4379;59.744;18.206;2023-01-08T05:16:21;1.50;99.90
8684;DHT22;4379;59.744;18.206;2023-01-08T05:18:49;1.50;99.90
8684;DHT22;4379;59.744;18.206;2023-01-08T05:21:16;1.50;99.90
8684;DHT22;4379;59.744;18.206;2023-01-08T05:23:46;1.50;99.90
8684;DHT22;4379;59.744;18.206;2023-01-08T05:26:16;1.60;99.90
8684;DHT22;4379;59.744;18.206;2023-01-08T05:28:43;1.60;99.90
8684;DHT22;4379;59.744;18.206;2023-01-08T05:31:11;1.60;99.90
8684;DHT22;4379;59.744;18.206;2023-01-08T05:33:38;1.60;99.90
8684;DHT22;4379;59.744;18.206;2023-01-08T05:36:07;1.60;99.90
8684;DHT22;4379;59.744;18.206;2023-01-08T05:38:35;1.60;99.90
8684;DHT22;4379;59.744;18.206;2023-01-08T05:41:02;1.50;99.90
8684;DHT22;4379;59.744;18.206;2023-01-08T05:43:30;1.50;99.90
8684;DHT22;4379;59.744;18.206;2023-01-08T05:45:58;1.60;99.90
8684;DHT22;4379;59.744;18.206;2023-01-08T05:48:27;1.60;99.90
8684;DHT22;4379;59.744;18.206;2023-01-08T05:50:54;1.70;99.90
8684;DHT22;4379;59.744;18.206;2023-01-08T05:53:21;1.60;99.90
8684;DHT22;4379;59.744;18.206;2023-01-08T05:55:48;1.70;99.90
8684;DHT22;4379;59.744;18.206;2023-01-08T05:58:16;1.70;99.90
8684;DHT22;4379;59.744;18.206;2023-01-08T06:00:46;1.80;99.90
8684;DHT22;4379;59.744;18.206;2023-01-08T06:03:13;1.80;99.90
8684;DHT22;4379;59.744;18.206;2023-01-08T06:05:41;1.70;99.90
8684;DHT22;4379;59.744;18.206;2023-01-08T06:08:08;1.80;99.90
8684;DHT22;4379;59.744;18.206;2023-01-08T06:10:37;1.70;99.90
8684;DHT22;4379;59.744;18.206;2023-01-08T06:13:08;1.70;99.90
8684;DHT22;4379;59.744;18.206;2023-01-08T06:15:37;1.70;99.90
8684;DHT22;4379;59.744;18.206;2023-01-08T06:18:06;1.80;99.90
8684;DHT22;4379;59.744;18.206;2023-01-08T06:20:33;1.70;99.90
8684;DHT22;4379;59.744;18.206;2023-01-08T06:23:01;1.70;99.90
8684;DHT22;4379;59.744;18.206;2023-01-08T06:25:29;1.80;99.90
8684;DHT22;4379;59.744;18.206;2023-01-08T06:27:56;1.80;99.90
8684;DHT22;4379;59.744;18.206;2023-01-08T06:30:23;1.80;99.90
8684;DHT22;4379;59.744;18.206;2023-01-08T06:32:55;1.90;99.90
8684;DHT22;4379;59.744;18.206;2023-01-08T06:35:22;1.90;99.90
8684;DHT22;4379;59.744;18.206;2023-01-08T06:37:49;1.90;99.90
8684;DHT22;4379;59.744;18.206;2023-01-08T06:40:16;1.80;99.90
8684;DHT22;4379;59.744;18.206;2023-01-08T06:42:44;1.80;99.90
8684;DHT22;4379;59.744;18.206;2023-01-08T06:45:12;1.80;99.90
8684;DHT22;4379;59.744;18.206;2023-01-08T06:47:39;1.90;99.90
8684;DHT22;4379;59.744;18.206;2023-01-08T06:50:06;1.90;99.90
8684;DHT22;4379;59.744;18.206;2023-01-08T06:52:34;2.00;99.90
8684;DHT22;4379;59.744;18.206;2023-01-08T06:55:01;1.90;99.90
8684;DHT22;4379;59.744;18.206;2023-01-08T06:57:28;1.90;99.90
8684;DHT22;4379;59.744;18.206;2023-01-08T06:59:56;2.00;99.90
8684;DHT22;4379;59.744;18.206;2023-01-08T07:02:24;2.00;99.90
8684;DHT22;4379;59.744;18.206;2023-01-08T07:04:51;1.90;99.90
8684;DHT22;4379;59.744;18.206;2023-01-08T07:07:18;2.00;99.90
8684;DHT22;4379;59.744;18.206;2023-01-08T07:09:45;1.90;99.90
8684;DHT22;4379;59.744;18.206;2023-01-08T07:12:13;1.90;99.90
8684;DHT22;4379;59.744;18.206;2023-01-08T07:14:40;1.90;99.90
8684;DHT22;4379;59.744;18.206;2023-01-08T07:17:08;2.00;99.90
8684;DHT22;4379;59.744;18.206;2023-01-08T07:19:35;2.00;99.90
8684;DHT22;4379;59.744;18.206;2023-01-08T07:22:02;2.10;99.90
8684;DHT22;4379;59.744;18.206;2023-01-08T07:24:29;2.00;99.90
8684;DHT22;4379;59.744;18.206;2023-01-08T07:26:57;2.00;99.90
8684;DHT22;4379;59.744;18.206;2023-01-08T07:29:24;2.00;99.90
8684;DHT22;4379;59.744;18.206;2023-01-08T07:31:52;2.00;99.90
8684;DHT22;4379;59.744;18.206;2023-01-08T07:34:19;2.00;99.90
8684;DHT22;4379;59.744;18.206;2023-01-08T07:36:46;2.00;99.90
8684;DHT22;4379;59.744;18.206;2023-01-08T07:39:13;2.00;99.90
8684;DHT22;4379;59.744;18.206;2023-01-08T07:41:40;2.00;99.90
8684;DHT22;4379;59.744;18.206;2023-01-08T07:44:07;2.00;99.90
8684;DHT22;4379;59.744;18.206;2023-01-08T07:46:34;2.00;99.90
8684;DHT22;4379;59.744;18.206;2023-01-08T07:49:02;2.10;99.90
8684;DHT22;4379;59.744;18.206;2023-01-08T07:51:29;2.10;99.90
8684;DHT22;4379;59.744;18.206;2023-01-08T07:53:56;2.10;99.90
8684;DHT22;4379;59.744;18.206;2023-01-08T07:56:23;2.20;99.90
8684;DHT22;4379;59.744;18.206;2023-01-08T07:58:51;2.10;99.90
8684;DHT22;4379;59.744;18.206;2023-01-08T08:01:18;2.10;99.90
8684;DHT22;4379;59.744;18.206;2023-01-08T08:03:46;2.20;99.90
8684;DHT22;4379;59.744;18.206;2023-01-08T08:06:13;2.20;99.90
8684;DHT22;4379;59.744;18.206;2023-01-08T08:08:40;2.20;99.90
8684;DHT22;4379;59.744;18.206;2023-01-08T08:11:08;2.30;99.90
8684;DHT22;4379;59.744;18.206;2023-01-08T08:13:35;2.30;99.90
8684;DHT22;4379;59.744;18.206;2023-01-08T08:16:03;2.30;99.90
8684;DHT22;4379;59.744;18.206;2023-01-08T08:18:31;2.20;99.90
8684;DHT22;4379;59.744;18.206;2023-01-08T08:20:59;2.30;99.90
8684;DHT22;4379;59.744;18.206;2023-01-08T08:23:27;2.30;99.90
8684;DHT22;4379;59.744;18.206;2023-01-08T08:25:54;2.40;99.90
8684;DHT22;4379;59.744;18.206;2023-01-08T08:28:21;2.40;99.90
8684;DHT22;4379;59.744;18.206;2023-01-08T08:30:50;2.40;99.90
8684;DHT22;4379;59.744;18.206;2023-01-08T08:33:17;2.40;99.90
8684;DHT22;4379;59.744;18.206;2023-01-08T08:35:48;2.40;99.90
8684;DHT22;4379;59.744;18.206;2023-01-08T08:38:17;2.40;99.90
8684;DHT22;4379;59.744;18.206;2023-01-08T08:40:44;2.50;99.90
8684;DHT22;4379;59.744;18.206;2023-01-08T08:43:11;2.40;99.90
8684;DHT22;4379;59.744;18.206;2023-01-08T08:45:38;2.50;99.90
8684;DHT22;4379;59.744;18.206;2023-01-08T08:48:07;2.40;99.90
8684;DHT22;4379;59.744;18.206;2023-01-08T08:50:34;2.50;99.90
8684;DHT22;4379;59.744;18.206;2023-01-08T08:53:02;2.50;99.90
8684;DHT22;4379;59.744;18.206;2023-01-08T08:55:31;2.50;99.90
8684;DHT22;4379;59.744;18.206;2023-01-08T08:58:03;2.50;99.90
8684;DHT22;4379;59.744;18.206;2023-01-08T09:00:31;2.60;99.90
8684;DHT22;4379;59.744;18.206;2023-01-08T09:02:58;2.70;99.90
8684;DHT22;4379;59.744;18.206;2023-01-08T09:05:25;2.60;99.90
8684;DHT22;4379;59.744;18.206;2023-01-08T09:07:53;2.60;99.90
8684;DHT22;4379;59.744;18.206;2023-01-08T09:10:20;2.60;99.90
8684;DHT22;4379;59.744;18.206;2023-01-08T09:12:48;2.60;99.90
8684;DHT22;4379;59.744;18.206;2023-01-08T09:15:15;2.70;99.90
8684;DHT22;4379;59.744;18.206;2023-01-08T09:17:42;2.70;99.90
8684;DHT22;4379;59.744;18.206;2023-01-08T09:20:10;2.70;99.90
8684;DHT22;4379;59.744;18.206;2023-01-08T09:22:37;2.80;99.90
8684;DHT22;4379;59.744;18.206;2023-01-08T09:25:05;2.90;99.90
8684;DHT22;4379;59.744;18.206;2023-01-08T09:27:32;2.80;99.90
8684;DHT22;4379;59.744;18.206;2023-01-08T09:29:59;2.80;99.90
8684;DHT22;4379;59.744;18.206;2023-01-08T09:32:26;2.80;99.90
8684;DHT22;4379;59.744;18.206;2023-01-08T09:34:53;2.70;99.90
8684;DHT22;4379;59.744;18.206;2023-01-08T09:37:20;2.80;99.90
8684;DHT22;4379;59.744;18.206;2023-01-08T09:39:49;2.80;99.90
8684;DHT22;4379;59.744;18.206;2023-01-08T09:42:28;2.90;99.90
8684;DHT22;4379;59.744;18.206;2023-01-08T09:44:57;2.90;99.90
8684;DHT22;4379;59.744;18.206;2023-01-08T09:47:38;2.90;99.90
8684;DHT22;4379;59.744;18.206;2023-01-08T09:50:11;2.90;99.90
8684;DHT22;4379;59.744;18.206;2023-01-08T09:52:39;2.90;99.90
8684;DHT22;4379;59.744;18.206;2023-01-08T09:55:13;3.00;99.90
8684;DHT22;4379;59.744;18.206;2023-01-08T09:57:43;3.00;99.90
8684;DHT22;4379;59.744;18.206;2023-01-08T10:00:46;3.00;99.90
8684;DHT22;4379;59.744;18.206;2023-01-08T10:03:09;3.00;99.90
8684;DHT22;4379;59.744;18.206;2023-01-08T10:05:37;3.10;99.90
8684;DHT22;4379;59.744;18.206;2023-01-08T10:08:05;3.10;99.90
8684;DHT22;4379;59.744;18.206;2023-01-08T10:10:32;3.10;99.90
8684;DHT22;4379;59.744;18.206;2023-01-08T10:13:00;3.10;99.90
8684;DHT22;4379;59.744;18.206;2023-01-08T10:15:27;3.10;99.90
8684;DHT22;4379;59.744;18.206;2023-01-08T10:18:06;3.10;99.90
8684;DHT22;4379;59.744;18.206;2023-01-08T10:20:36;3.10;99.90
8684;DHT22;4379;59.744;18.206;2023-01-08T10:25:53;3.20;99.90
8684;DHT22;4379;59.744;18.206;2023-01-08T10:28:33;3.10;99.90
8684;DHT22;4379;59.744;18.206;2023-01-08T10:31:13;3.20;99.90
8684;DHT22;4379;59.744;18.206;2023-01-08T10:33:46;3.20;99.90
8684;DHT22;4379;59.744;18.206;2023-01-08T10:36:18;3.20;99.90
8684;DHT22;4379;59.744;18.206;2023-01-08T10:38:59;3.20;99.90
8684;DHT22;4379;59.744;18.206;2023-01-08T10:41:27;3.20;99.90
8684;DHT22;4379;59.744;18.206;2023-01-08T10:44:03;3.20;99.90
8684;DHT22;4379;59.744;18.206;2023-01-08T10:46:35;3.20;99.90
8684;DHT22;4379;59.744;18.206;2023-01-08T10:49:26;3.30;99.90
8684;DHT22;4379;59.744;18.206;2023-01-08T10:51:55;3.30;99.90
8684;DHT22;4379;59.744;18.206;2023-01-08T10:54:34;3.30;99.90
8684;DHT22;4379;59.744;18.206;2023-01-08T10:57:17;3.30;99.90
8684;DHT22;4379;59.744;18.206;2023-01-08T10:59:45;3.30;99.90
8684;DHT22;4379;59.744;18.206;2023-01-08T11:02:28;3.30;99.90
8684;DHT22;4379;59.744;18.206;2023-01-08T11:04:57;3.30;99.90
8684;DHT22;4379;59.744;18.206;2023-01-08T11:07:25;3.40;99.90
8684;DHT22;4379;59.744;18.206;2023-01-08T11:09:53;3.40;99.90
8684;DHT22;4379;59.744;18.206;2023-01-08T11:12:39;3.40;99.90
8684;DHT22;4379;59.744;18.206;2023-01-08T11:17:40;3.40;99.90
8684;DHT22;4379;59.744;18.206;2023-01-08T11:22:45;3.40;99.90
8684;DHT22;4379;59.744;18.206;2023-01-08T11:25:15;3.40;99.90
8684;DHT22;4379;59.744;18.206;2023-01-08T11:27:45;3.40;99.90
8684;DHT22;4379;59.744;18.206;2023-01-08T11:30:22;3.40;99.90
8684;DHT22;4379;59.744;18.206;2023-01-08T11:32:55;3.40;99.90
8684;DHT22;4379;59.744;18.206;2023-01-08T11:35:27;3.40;99.90
8684;DHT22;4379;59.744;18.206;2023-01-08T11:37:58;3.40;99.90
8684;DHT22;4379;59.744;18.206;2023-01-08T11:41:23;3.30;99.90
8684;DHT22;4379;59.744;18.206;2023-01-08T11:50:04;3.30;99.90
8684;DHT22;4379;59.744;18.206;2023-01-08T11:53:09;3.30;99.90
8684;DHT22;4379;59.744;18.206;2023-01-08T11:58:37;3.40;99.90
8684;DHT22;4379;59.744;18.206;2023-01-08T12:12:05;3.40;99.90
8684;DHT22;4379;59.744;18.206;2023-01-08T12:20:24;3.40;99.90
8684;DHT22;4379;59.744;18.206;2023-01-08T12:28:44;3.40;99.90
8684;DHT22;4379;59.744;18.206;2023-01-08T12:33:50;3.40;99.90
8684;DHT22;4379;59.744;18.206;2023-01-08T12:36:26;3.40;99.90
8684;DHT22;4379;59.744;18.206;2023-01-08T12:39:03;3.40;99.90
8684;DHT22;4379;59.744;18.206;2023-01-08T12:41:34;3.40;99.90
8684;DHT22;4379;59.744;18.206;2023-01-08T12:44:04;3.40;99.90
8684;DHT22;4379;59.744;18.206;2023-01-08T12:46:36;3.40;99.90
8684;DHT22;4379;59.744;18.206;2023-01-08T12:49:05;3.40;99.90
8684;DHT22;4379;59.744;18.206;2023-01-08T12:57:09;3.40;99.90
8684;DHT22;4379;59.744;18.206;2023-01-08T13:02:59;3.40;99.90
8684;DHT22;4379;59.744;18.206;2023-01-08T13:05:32;3.40;99.90
8684;DHT22;4379;59.744;18.206;2023-01-08T13:10:33;3.40;99.90
8684;DHT22;4379;59.744;18.206;2023-01-08T13:13:02;3.40;99.90
8684;DHT22;4379;59.744;18.206;2023-01-08T13:15:31;3.40;99.90
8684;DHT22;4379;59.744;18.206;2023-01-08T13:18:16;3.40;99.90
8684;DHT22;4379;59.744;18.206;2023-01-08T13:20:55;3.30;99.90
8684;DHT22;4379;59.744;18.206;2023-01-08T13:23:31;3.30;99.90
8684;DHT22;4379;59.744;18.206;2023-01-08T13:26:03;3.30;99.90
8684;DHT22;4379;59.744;18.206;2023-01-08T13:33:49;3.40;99.90
8684;DHT22;4379;59.744;18.206;2023-01-08T13:41:41;3.40;99.90
8684;DHT22;4379;59.744;18.206;2023-01-08T13:44:31;3.30;99.90
8684;DHT22;4379;59.744;18.206;2023-01-08T13:47:03;3.40;99.90
8684;DHT22;4379;59.744;18.206;2023-01-08T13:49:44;3.30;99.90
8684;DHT22;4379;59.744;18.206;2023-01-08T13:52:42;3.40;99.90
8684;DHT22;4379;59.744;18.206;2023-01-08T13:55:16;3.40;99.90
8684;DHT22;4379;59.744;18.206;2023-01-08T13:57:52;3.30;99.90
8684;DHT22;4379;59.744;18.206;2023-01-08T14:00:27;3.30;99.90
8684;DHT22;4379;59.744;18.206;2023-01-08T14:02:54;3.30;99.90
8684;DHT22;4379;59.744;18.206;2023-01-08T14:05:31;3.30;99.90
8684;DHT22;4379;59.744;18.206;2023-01-08T14:08:00;3.30;99.90
8684;DHT22;4379;59.744;18.206;2023-01-08T14:10:28;3.30;99.90
8684;DHT22;4379;59.744;18.206;2023-01-08T14:13:06;3.30;99.90
8684;DHT22;4379;59.744;18.206;2023-01-08T14:15:34;3.30;99.90
8684;DHT22;4379;59.744;18.206;2023-01-08T14:18:02;3.40;99.90
8684;DHT22;4379;59.744;18.206;2023-01-08T14:20:33;3.30;99.90
8684;DHT22;4379;59.744;18.206;2023-01-08T14:23:01;3.30;99.90
8684;DHT22;4379;59.744;18.206;2023-01-08T14:25:28;3.30;99.90
8684;DHT22;4379;59.744;18.206;2023-01-08T14:27:58;3.30;99.90
8684;DHT22;4379;59.744;18.206;2023-01-08T14:30:27;3.30;99.90
8684;DHT22;4379;59.744;18.206;2023-01-08T14:32:56;3.30;99.90
8684;DHT22;4379;59.744;18.206;2023-01-08T14:35:31;3.30;99.90
8684;DHT22;4379;59.744;18.206;2023-01-08T14:38:01;3.30;99.90
8684;DHT22;4379;59.744;18.206;2023-01-08T14:40:35;3.30;99.90
8684;DHT22;4379;59.744;18.206;2023-01-08T14:43:15;3.20;99.90
8684;DHT22;4379;59.744;18.206;2023-01-08T14:45:49;3.30;99.90
8684;DHT22;4379;59.744;18.206;2023-01-08T14:51:27;3.30;99.90
8684;DHT22;4379;59.744;18.206;2023-01-08T14:54:00;3.30;99.90
8684;DHT22;4379;59.744;18.206;2023-01-08T14:56:33;3.30;99.90
8684;DHT22;4379;59.744;18.206;2023-01-08T14:59:11;3.30;99.90
8684;DHT22;4379;59.744;18.206;2023-01-08T15:01:41;3.30;99.90
8684;DHT22;4379;59.744;18.206;2023-01-08T15:04:19;3.30;99.90
8684;DHT22;4379;59.744;18.206;2023-01-08T15:06:47;3.20;99.90
8684;DHT22;4379;59.744;18.206;2023-01-08T15:09:28;3.20;99.90
8684;DHT22;4379;59.744;18.206;2023-01-08T15:11:58;3.30;99.90
8684;DHT22;4379;59.744;18.206;2023-01-08T15:14:27;3.20;99.90
8684;DHT22;4379;59.744;18.206;2023-01-08T15:16:59;3.20;99.90
8684;DHT22;4379;59.744;18.206;2023-01-08T15:19:32;3.20;99.90
8684;DHT22;4379;59.744;18.206;2023-01-08T15:22:01;3.20;99.90
8684;DHT22;4379;59.744;18.206;2023-01-08T15:24:30;3.20;99.90
8684;DHT22;4379;59.744;18.206;2023-01-08T15:26:58;3.10;99.90
8684;DHT22;4379;59.744;18.206;2023-01-08T15:29:45;3.20;99.90
8684;DHT22;4379;59.744;18.206;2023-01-08T15:34:44;3.20;99.90
8684;DHT22;4379;59.744;18.206;2023-01-08T15:37:12;3.20;99.90
8684;DHT22;4379;59.744;18.206;2023-01-08T15:39:41;3.20;99.90
8684;DHT22;4379;59.744;18.206;2023-01-08T15:42:18;3.20;99.90
8684;DHT22;4379;59.744;18.206;2023-01-08T15:45:09;3.20;99.90
8684;DHT22;4379;59.744;18.206;2023-01-08T15:47:37;3.20;99.90
8684;DHT22;4379;59.744;18.206;2023-01-08T15:50:05;3.20;99.90
8684;DHT22;4379;59.744;18.206;2023-01-08T15:52:32;3.20;99.90
8684;DHT22;4379;59.744;18.206;2023-01-08T15:55:00;3.30;99.90
8684;DHT22;4379;59.744;18.206;2023-01-08T15:57:28;3.30;99.90
8684;DHT22;4379;59.744;18.206;2023-01-08T15:59:58;3.30;99.90
8684;DHT22;4379;59.744;18.206;2023-01-08T16:02:25;3.20;99.90
8684;DHT22;4379;59.744;18.206;2023-01-08T16:04:56;3.20;99.90
8684;DHT22;4379;59.744;18.206;2023-01-08T16:07:23;3.20;99.90
8684;DHT22;4379;59.744;18.206;2023-01-08T16:09:50;3.20;99.90
8684;DHT22;4379;59.744;18.206;2023-01-08T16:12:17;3.10;99.90
8684;DHT22;4379;59.744;18.206;2023-01-08T16:14:45;3.20;99.90
8684;DHT22;4379;59.744;18.206;2023-01-08T16:17:12;3.20;99.90
8684;DHT22;4379;59.744;18.206;2023-01-08T16:19:39;3.20;99.90
8684;DHT22;4379;59.744;18.206;2023-01-08T16:22:06;3.20;99.90
8684;DHT22;4379;59.744;18.206;2023-01-08T16:24:34;3.20;99.90
8684;DHT22;4379;59.744;18.206;2023-01-08T16:27:01;3.20;99.90
8684;DHT22;4379;59.744;18.206;2023-01-08T16:29:28;3.20;99.90
8684;DHT22;4379;59.744;18.206;2023-01-08T16:31:55;3.10;99.90
8684;DHT22;4379;59.744;18.206;2023-01-08T16:34:24;3.20;99.90
8684;DHT22;4379;59.744;18.206;2023-01-08T16:36:52;3.10;99.90
8684;DHT22;4379;59.744;18.206;2023-01-08T16:39:19;3.10;99.90
8684;DHT22;4379;59.744;18.206;2023-01-08T16:41:46;3.20;99.90
8684;DHT22;4379;59.744;18.206;2023-01-08T16:44:19;3.20;99.90
8684;DHT22;4379;59.744;18.206;2023-01-08T16:46:46;3.20;99.90
8684;DHT22;4379;59.744;18.206;2023-01-08T16:49:14;3.20;99.90
8684;DHT22;4379;59.744;18.206;2023-01-08T16:51:41;3.20;99.90
8684;DHT22;4379;59.744;18.206;2023-01-08T16:54:14;3.30;99.90
8684;DHT22;4379;59.744;18.206;2023-01-08T16:56:41;3.20;99.90
8684;DHT22;4379;59.744;18.206;2023-01-08T16:59:09;3.10;99.90
8684;DHT22;4379;59.744;18.206;2023-01-08T17:01:48;3.10;99.90
8684;DHT22;4379;59.744;18.206;2023-01-08T17:04:16;3.10;99.90
8684;DHT22;4379;59.744;18.206;2023-01-08T17:06:43;3.10;99.90
8684;DHT22;4379;59.744;18.206;2023-01-08T17:09:13;3.10;99.90
8684;DHT22;4379;59.744;18.206;2023-01-08T17:11:41;3.10;99.90
8684;DHT22;4379;59.744;18.206;2023-01-08T17:14:08;3.10;99.90
8684;DHT22;4379;59.744;18.206;2023-01-08T17:16:35;3.10;99.90
8684;DHT22;4379;59.744;18.206;2023-01-08T17:19:03;3.20;99.90
8684;DHT22;4379;59.744;18.206;2023-01-08T17:21:30;3.10;99.90
8684;DHT22;4379;59.744;18.206;2023-01-08T17:23:59;3.10;99.90
8684;DHT22;4379;59.744;18.206;2023-01-08T17:26:27;3.10;99.90
8684;DHT22;4379;59.744;18.206;2023-01-08T17:28:55;3.10;99.90
8684;DHT22;4379;59.744;18.206;2023-01-08T17:31:22;3.10;99.90
8684;DHT22;4379;59.744;18.206;2023-01-08T17:33:50;3.10;99.90
8684;DHT22;4379;59.744;18.206;2023-01-08T17:36:19;3.00;99.90
8684;DHT22;4379;59.744;18.206;2023-01-08T17:38:47;3.10;99.90
8684;DHT22;4379;59.744;18.206;2023-01-08T17:41:19;3.00;99.90
8684;DHT22;4379;59.744;18.206;2023-01-08T17:44:08;3.00;99.90
8684;DHT22;4379;59.744;18.206;2023-01-08T17:46:37;3.00;99.90
8684;DHT22;4379;59.744;18.206;2023-01-08T17:49:08;3.00;99.90